sensor_id;sensor_type;location;lat;lon;timestamp;temperature;humidity
43049;DHT22;28673;44.412;11.918;2022-09-12T12:43:31;30.30;90.00
43049;DHT22;28673;44.412;11.918;2022-09-12T12:46:04;30.10;92.40
43049;DHT22;28673;44.412;11.918;2022-09-12T12:48:33;29.70;92.10
43049;DHT22;28673;44.412;11.918;2022-09-12T12:51:32;29.20;92.50
43049;DHT22;28673;44.412;11.918;2022-09-12T12:54:04;28.70;92.30
43049;DHT22;28673;44.412;11.918;2022-09-12T12:56:44;28.20;93.10
43049;DHT22;28673;44.412;11.918;2022-09-12T12:59:19;27.80;93.50
43049;DHT22;28673;44.412;11.918;2022-09-12T13:01:51;27.50;93.50
43049;DHT22;28673;44.412;11.918;2022-09-12T13:04:21;27.20;93.70
43049;DHT22;28673;44.412;11.918;2022-09-12T13:30:26;29.10;91.60
43049;DHT22;28673;44.412;11.918;2022-09-12T13:32:55;30.10;89.60
43049;DHT22;28673;44.412;11.918;2022-09-12T13:43:35;32.50;85.70
43049;DHT22;28673;44.412;11.918;2022-09-12T13:46:01;32.90;84.20
43049;DHT22;28673;44.412;11.918;2022-09-12T13:48:27;33.00;86.90
43049;DHT22;28673;44.412;11.918;2022-09-12T13:50:58;33.40;86.50
43049;DHT22;28673;44.412;11.918;2022-09-12T13:53:28;33.60;83.00
43049;DHT22;28673;44.412;11.918;2022-09-12T13:55:58;33.50;83.10
43049;DHT22;28673;44.412;11.918;2022-09-12T13:58:27;33.50;82.90
43049;DHT22;28673;44.412;11.918;2022-09-12T14:03:47;33.80;80.80
43049;DHT22;28673;44.412;11.918;2022-09-12T14:06:41;33.90;79.40
43049;DHT22;28673;44.412;11.918;2022-09-12T14:09:22;33.70;79.30
43049;DHT22;28673;44.412;11.918;2022-09-12T14:11:48;33.40;77.90
43049;DHT22;28673;44.412;11.918;2022-09-12T14:16:52;33.40;81.10
43049;DHT22;28673;44.412;11.918;2022-09-12T14:19:21;33.30;81.70
43049;DHT22;28673;44.412;11.918;2022-09-12T14:21:47;33.40;79.80
43049;DHT22;28673;44.412;11.918;2022-09-12T14:24:15;33.60;80.30
43049;DHT22;28673;44.412;11.918;2022-09-12T14:26:41;33.80;80.20
43049;DHT22;28673;44.412;11.918;2022-09-12T14:29:08;33.90;79.80
43049;DHT22;28673;44.412;11.918;2022-09-12T14:31:37;34.00;79.50
43049;DHT22;28673;44.412;11.918;2022-09-12T14:34:15;34.10;79.50
43049;DHT22;28673;44.412;11.918;2022-09-12T14:36:52;34.30;78.60
43049;DHT22;28673;44.412;11.918;2022-09-12T14:39:32;34.50;77.50
43049;DHT22;28673;44.412;11.918;2022-09-12T14:44:36;34.60;77.00
43049;DHT22;28673;44.412;11.918;2022-09-12T14:47:22;34.70;79.20
43049;DHT22;28673;44.412;11.918;2022-09-12T14:49:49;34.60;78.50
43049;DHT22;28673;44.412;11.918;2022-09-12T14:52:32;34.10;79.40
43049;DHT22;28673;44.412;11.918;2022-09-12T14:57:45;33.60;79.10
43049;DHT22;28673;44.412;11.918;2022-09-12T15:02:44;32.70;82.00
43049;DHT22;28673;44.412;11.918;2022-09-12T15:07:42;31.70;83.10
43049;DHT22;28673;44.412;11.918;2022-09-12T15:10:24;31.60;84.00
43049;DHT22;28673;44.412;11.918;2022-09-12T15:13:17;31.30;84.30
43049;DHT22;28673;44.412;11.918;2022-09-12T15:15:55;30.90;84.80
43049;DHT22;28673;44.412;11.918;2022-09-12T15:18:26;30.60;86.00
43049;DHT22;28673;44.412;11.918;2022-09-12T15:21:04;30.20;86.30
43049;DHT22;28673;44.412;11.918;2022-09-12T15:26:08;29.70;88.60
43049;DHT22;28673;44.412;11.918;2022-09-12T15:28:34;29.40;88.90
43049;DHT22;28673;44.412;11.918;2022-09-12T15:31:27;29.20;89.20
43049;DHT22;28673;44.412;11.918;2022-09-12T15:33:54;29.00;89.60
43049;DHT22;28673;44.412;11.918;2022-09-12T15:36:21;28.80;90.20
43049;DHT22;28673;44.412;11.918;2022-09-12T15:38:48;28.60;90.30
43049;DHT22;28673;44.412;11.918;2022-09-12T15:43:45;28.20;91.00
43049;DHT22;28673;44.412;11.918;2022-09-12T15:46:13;28.10;91.20
43049;DHT22;28673;44.412;11.918;2022-09-12T15:48:39;28.00;91.50
43049;DHT22;28673;44.412;11.918;2022-09-12T15:51:16;27.90;92.00
43049;DHT22;28673;44.412;11.918;2022-09-12T15:53:43;27.90;92.40
43049;DHT22;28673;44.412;11.918;2022-09-12T15:56:09;27.70;92.40
43049;DHT22;28673;44.412;11.918;2022-09-12T15:58:35;27.60;92.50
43049;DHT22;28673;44.412;11.918;2022-09-12T16:01:03;27.50;92.80
43049;DHT22;28673;44.412;11.918;2022-09-12T16:03:29;27.40;93.00
43049;DHT22;28673;44.412;11.918;2022-09-12T16:06:00;27.30;93.20
43049;DHT22;28673;44.412;11.918;2022-09-12T16:08:28;27.10;93.30
43049;DHT22;28673;44.412;11.918;2022-09-12T16:10:58;27.10;93.60
43049;DHT22;28673;44.412;11.918;2022-09-12T16:13:25;27.00;93.70
43049;DHT22;28673;44.412;11.918;2022-09-12T16:15:54;27.00;93.90
43049;DHT22;28673;44.412;11.918;2022-09-12T16:18:20;26.90;94.00
43049;DHT22;28673;44.412;11.918;2022-09-12T16:20:46;26.80;94.20
43049;DHT22;28673;44.412;11.918;2022-09-12T16:23:16;26.70;94.40
43049;DHT22;28673;44.412;11.918;2022-09-12T16:25:41;26.60;94.60
43049;DHT22;28673;44.412;11.918;2022-09-12T16:28:08;26.50;94.70
43049;DHT22;28673;44.412;11.918;2022-09-12T16:30:34;26.50;94.90
43049;DHT22;28673;44.412;11.918;2022-09-12T16:33:00;26.40;95.10
43049;DHT22;28673;44.412;11.918;2022-09-12T16:35:26;26.40;95.20
43049;DHT22;28673;44.412;11.918;2022-09-12T16:37:52;26.30;95.30
43049;DHT22;28673;44.412;11.918;2022-09-12T16:40:18;26.20;95.30
43049;DHT22;28673;44.412;11.918;2022-09-12T16:42:44;26.20;95.50
43049;DHT22;28673;44.412;11.918;2022-09-12T16:45:11;26.10;95.80
43049;DHT22;28673;44.412;11.918;2022-09-12T16:47:37;26.00;96.00
43049;DHT22;28673;44.412;11.918;2022-09-12T16:50:04;25.90;95.90
43049;DHT22;28673;44.412;11.918;2022-09-12T16:52:30;25.90;96.10
43049;DHT22;28673;44.412;11.918;2022-09-12T16:54:56;25.90;96.20
43049;DHT22;28673;44.412;11.918;2022-09-12T16:57:22;25.80;96.20
43049;DHT22;28673;44.412;11.918;2022-09-12T16:59:48;25.70;96.20
43049;DHT22;28673;44.412;11.918;2022-09-12T17:02:14;25.70;96.40
43049;DHT22;28673;44.412;11.918;2022-09-12T17:04:40;25.60;96.40
43049;DHT22;28673;44.412;11.918;2022-09-12T17:07:06;25.50;96.50
43049;DHT22;28673;44.412;11.918;2022-09-12T17:09:33;25.50;96.50
43049;DHT22;28673;44.412;11.918;2022-09-12T17:11:59;25.40;96.60
43049;DHT22;28673;44.412;11.918;2022-09-12T17:14:25;25.30;96.60
43049;DHT22;28673;44.412;11.918;2022-09-12T17:16:51;25.30;96.80
43049;DHT22;28673;44.412;11.918;2022-09-12T17:19:26;25.10;96.90
43049;DHT22;28673;44.412;11.918;2022-09-12T17:21:55;25.10;97.10
43049;DHT22;28673;44.412;11.918;2022-09-12T17:24:21;25.00;97.10
43049;DHT22;28673;44.412;11.918;2022-09-12T17:26:48;24.90;97.20
43049;DHT22;28673;44.412;11.918;2022-09-12T17:29:15;24.90;97.30
43049;DHT22;28673;44.412;11.918;2022-09-12T17:31:42;24.80;97.50
43049;DHT22;28673;44.412;11.918;2022-09-12T17:34:08;24.70;97.60
43049;DHT22;28673;44.412;11.918;2022-09-12T17:36:34;24.70;97.70
43049;DHT22;28673;44.412;11.918;2022-09-12T17:39:02;24.60;97.80
43049;DHT22;28673;44.412;11.918;2022-09-12T17:41:29;24.50;97.90
43049;DHT22;28673;44.412;11.918;2022-09-12T17:43:59;24.40;98.00
43049;DHT22;28673;44.412;11.918;2022-09-12T17:46:35;24.40;98.10
43049;DHT22;28673;44.412;11.918;2022-09-12T17:49:04;24.30;98.20
43049;DHT22;28673;44.412;11.918;2022-09-12T17:51:31;24.20;98.30
43049;DHT22;28673;44.412;11.918;2022-09-12T17:53:59;24.10;98.40
43049;DHT22;28673;44.412;11.918;2022-09-12T17:56:27;24.10;98.50
43049;DHT22;28673;44.412;11.918;2022-09-12T17:58:57;24.00;98.70
43049;DHT22;28673;44.412;11.918;2022-09-12T18:01:24;23.90;99.00
43049;DHT22;28673;44.412;11.918;2022-09-12T18:04:09;23.80;98.90
43049;DHT22;28673;44.412;11.918;2022-09-12T18:06:37;23.70;99.10
43049;DHT22;28673;44.412;11.918;2022-09-12T18:09:07;23.70;99.40
43049;DHT22;28673;44.412;11.918;2022-09-12T18:11:34;23.60;99.30
43049;DHT22;28673;44.412;11.918;2022-09-12T18:14:01;23.50;99.50
43049;DHT22;28673;44.412;11.918;2022-09-12T18:16:27;23.40;99.60
43049;DHT22;28673;44.412;11.918;2022-09-12T18:18:54;23.30;99.70
43049;DHT22;28673;44.412;11.918;2022-09-12T18:21:20;23.30;99.80
43049;DHT22;28673;44.412;11.918;2022-09-12T18:23:46;23.20;99.90
43049;DHT22;28673;44.412;11.918;2022-09-12T18:26:12;23.20;99.90
43049;DHT22;28673;44.412;11.918;2022-09-12T18:28:43;23.20;99.90
43049;DHT22;28673;44.412;11.918;2022-09-12T18:31:15;23.10;99.90
43049;DHT22;28673;44.412;11.918;2022-09-12T18:33:41;23.10;99.90
43049;DHT22;28673;44.412;11.918;2022-09-12T18:36:10;23.00;99.90
43049;DHT22;28673;44.412;11.918;2022-09-12T18:38:36;23.00;99.90
43049;DHT22;28673;44.412;11.918;2022-09-12T18:41:13;23.00;99.90
43049;DHT22;28673;44.412;11.918;2022-09-12T18:43:40;22.90;99.90
43049;DHT22;28673;44.412;11.918;2022-09-12T18:46:08;22.90;99.90
43049;DHT22;28673;44.412;11.918;2022-09-12T18:48:35;22.90;99.90
43049;DHT22;28673;44.412;11.918;2022-09-12T18:51:05;22.80;99.90
43049;DHT22;28673;44.412;11.918;2022-09-12T18:53:33;22.80;99.90
43049;DHT22;28673;44.412;11.918;2022-09-12T18:56:08;22.70;99.90
43049;DHT22;28673;44.412;11.918;2022-09-12T18:58:40;22.70;99.90
43049;DHT22;28673;44.412;11.918;2022-09-12T19:01:11;22.60;99.90
43049;DHT22;28673;44.412;11.918;2022-09-12T19:03:38;22.60;99.90
43049;DHT22;28673;44.412;11.918;2022-09-12T19:08:41;22.40;99.90
43049;DHT22;28673;44.412;11.918;2022-09-12T19:11:08;22.40;99.90
43049;DHT22;28673;44.412;11.918;2022-09-12T19:13:39;22.30;99.90
43049;DHT22;28673;44.412;11.918;2022-09-12T19:16:08;22.30;99.90
43049;DHT22;28673;44.412;11.918;2022-09-12T19:18:36;22.30;99.90
43049;DHT22;28673;44.412;11.918;2022-09-12T19:21:08;22.30;99.90
43049;DHT22;28673;44.412;11.918;2022-09-12T19:23:36;22.20;99.90
43049;DHT22;28673;44.412;11.918;2022-09-12T19:26:05;22.20;99.90
43049;DHT22;28673;44.412;11.918;2022-09-12T19:28:34;22.20;99.90
43049;DHT22;28673;44.412;11.918;2022-09-12T19:31:05;22.20;99.90
43049;DHT22;28673;44.412;11.918;2022-09-12T19:33:31;22.10;99.90
43049;DHT22;28673;44.412;11.918;2022-09-12T19:36:05;22.10;99.90
43049;DHT22;28673;44.412;11.918;2022-09-12T19:38:34;22.10;99.90
43049;DHT22;28673;44.412;11.918;2022-09-12T19:41:03;22.00;99.90
43049;DHT22;28673;44.412;11.918;2022-09-12T19:43:29;22.00;99.90
43049;DHT22;28673;44.412;11.918;2022-09-12T19:45:59;22.00;99.90
43049;DHT22;28673;44.412;11.918;2022-09-12T19:48:25;22.10;99.90
43049;DHT22;28673;44.412;11.918;2022-09-12T19:50:51;22.00;99.90
43049;DHT22;28673;44.412;11.918;2022-09-12T19:53:18;22.00;99.90
43049;DHT22;28673;44.412;11.918;2022-09-12T19:55:45;22.00;99.90
43049;DHT22;28673;44.412;11.918;2022-09-12T19:58:12;22.00;99.90
43049;DHT22;28673;44.412;11.918;2022-09-12T20:00:40;21.90;99.90
43049;DHT22;28673;44.412;11.918;2022-09-12T20:03:07;21.90;99.90
43049;DHT22;28673;44.412;11.918;2022-09-12T20:05:35;21.90;99.90
43049;DHT22;28673;44.412;11.918;2022-09-12T20:08:01;21.90;99.90
43049;DHT22;28673;44.412;11.918;2022-09-12T20:10:27;21.90;99.90
43049;DHT22;28673;44.412;11.918;2022-09-12T20:12:53;21.90;99.90
43049;DHT22;28673;44.412;11.918;2022-09-12T20:15:19;21.90;99.90
43049;DHT22;28673;44.412;11.918;2022-09-12T20:17:45;21.90;99.90
43049;DHT22;28673;44.412;11.918;2022-09-12T20:20:11;21.90;99.90
43049;DHT22;28673;44.412;11.918;2022-09-12T20:22:37;21.90;99.90
43049;DHT22;28673;44.412;11.918;2022-09-12T20:25:03;22.00;99.90
43049;DHT22;28673;44.412;11.918;2022-09-12T20:27:30;22.00;99.90
43049;DHT22;28673;44.412;11.918;2022-09-12T20:29:56;22.00;99.90
43049;DHT22;28673;44.412;11.918;2022-09-12T20:32:23;22.00;99.90
43049;DHT22;28673;44.412;11.918;2022-09-12T20:34:50;22.00;99.90
43049;DHT22;28673;44.412;11.918;2022-09-12T20:37:16;22.00;99.90
43049;DHT22;28673;44.412;11.918;2022-09-12T20:39:43;22.00;99.90
43049;DHT22;28673;44.412;11.918;2022-09-12T20:42:09;21.90;99.90
43049;DHT22;28673;44.412;11.918;2022-09-12T20:44:35;21.90;99.90
43049;DHT22;28673;44.412;11.918;2022-09-12T20:47:01;21.80;99.90
43049;DHT22;28673;44.412;11.918;2022-09-12T20:49:27;21.80;99.90
43049;DHT22;28673;44.412;11.918;2022-09-12T20:51:53;21.70;99.90
43049;DHT22;28673;44.412;11.918;2022-09-12T20:54:19;21.60;99.90
43049;DHT22;28673;44.412;11.918;2022-09-12T20:56:45;21.60;99.90
43049;DHT22;28673;44.412;11.918;2022-09-12T20:59:11;21.60;99.90
43049;DHT22;28673;44.412;11.918;2022-09-12T21:01:38;21.60;99.90
43049;DHT22;28673;44.412;11.918;2022-09-12T21:04:05;21.60;99.90
43049;DHT22;28673;44.412;11.918;2022-09-12T21:06:31;21.60;99.90
43049;DHT22;28673;44.412;11.918;2022-09-12T21:08:57;21.60;99.90
43049;DHT22;28673;44.412;11.918;2022-09-12T21:11:25;21.60;99.90
43049;DHT22;28673;44.412;11.918;2022-09-12T21:13:52;21.60;99.90
43049;DHT22;28673;44.412;11.918;2022-09-12T21:16:20;21.70;99.90
43049;DHT22;28673;44.412;11.918;2022-09-12T21:18:53;21.70;99.90
43049;DHT22;28673;44.412;11.918;2022-09-12T21:21:19;21.70;99.90
43049;DHT22;28673;44.412;11.918;2022-09-12T21:23:45;21.70;99.90
43049;DHT22;28673;44.412;11.918;2022-09-12T21:26:11;21.80;99.90
43049;DHT22;28673;44.412;11.918;2022-09-12T21:28:37;21.80;99.90
43049;DHT22;28673;44.412;11.918;2022-09-12T21:31:03;21.90;99.90
43049;DHT22;28673;44.412;11.918;2022-09-12T21:33:29;21.90;99.90
43049;DHT22;28673;44.412;11.918;2022-09-12T21:36:03;21.80;99.90
43049;DHT22;28673;44.412;11.918;2022-09-12T21:38:30;21.90;99.90
43049;DHT22;28673;44.412;11.918;2022-09-12T21:41:22;21.90;99.90
43049;DHT22;28673;44.412;11.918;2022-09-12T21:43:48;21.90;99.90
43049;DHT22;28673;44.412;11.918;2022-09-12T21:46:14;21.90;99.90
43049;DHT22;28673;44.412;11.918;2022-09-12T21:48:41;21.80;99.90
43049;DHT22;28673;44.412;11.918;2022-09-12T21:51:07;21.80;99.90
43049;DHT22;28673;44.412;11.918;2022-09-12T21:53:34;21.80;99.90
43049;DHT22;28673;44.412;11.918;2022-09-12T21:56:05;21.80;99.90
43049;DHT22;28673;44.412;11.918;2022-09-12T21:58:32;21.80;99.90
43049;DHT22;28673;44.412;11.918;2022-09-12T22:00:58;21.80;99.90
43049;DHT22;28673;44.412;11.918;2022-09-12T22:03:26;21.80;99.90
43049;DHT22;28673;44.412;11.918;2022-09-12T22:05:59;21.70;99.90
43049;DHT22;28673;44.412;11.918;2022-09-12T22:08:27;21.70;99.90
43049;DHT22;28673;44.412;11.918;2022-09-12T22:10:56;21.70;99.90
43049;DHT22;28673;44.412;11.918;2022-09-12T22:13:23;21.70;99.90
43049;DHT22;28673;44.412;11.918;2022-09-12T22:15:49;21.60;99.90
43049;DHT22;28673;44.412;11.918;2022-09-12T22:18:15;21.70;99.90
43049;DHT22;28673;44.412;11.918;2022-09-12T22:20:41;21.70;99.90
43049;DHT22;28673;44.412;11.918;2022-09-12T22:23:10;21.60;99.90
43049;DHT22;28673;44.412;11.918;2022-09-12T22:25:55;21.70;99.90
43049;DHT22;28673;44.412;11.918;2022-09-12T22:28:21;21.60;99.90
43049;DHT22;28673;44.412;11.918;2022-09-12T22:30:49;21.60;99.90
43049;DHT22;28673;44.412;11.918;2022-09-12T22:33:15;21.60;99.90
43049;DHT22;28673;44.412;11.918;2022-09-12T22:35:41;21.60;99.90
43049;DHT22;28673;44.412;11.918;2022-09-12T22:38:07;21.60;99.90
43049;DHT22;28673;44.412;11.918;2022-09-12T22:40:34;21.50;99.90
43049;DHT22;28673;44.412;11.918;2022-09-12T22:43:00;21.50;99.90
43049;DHT22;28673;44.412;11.918;2022-09-12T22:45:25;21.50;99.90
43049;DHT22;28673;44.412;11.918;2022-09-12T22:47:51;21.40;99.90
43049;DHT22;28673;44.412;11.918;2022-09-12T22:50:17;21.40;99.90
43049;DHT22;28673;44.412;11.918;2022-09-12T22:52:43;21.40;99.90
43049;DHT22;28673;44.412;11.918;2022-09-12T22:55:09;21.30;99.90
43049;DHT22;28673;44.412;11.918;2022-09-12T22:57:35;21.30;99.90
43049;DHT22;28673;44.412;11.918;2022-09-12T23:00:03;21.30;99.90
43049;DHT22;28673;44.412;11.918;2022-09-12T23:02:32;21.30;99.90
43049;DHT22;28673;44.412;11.918;2022-09-12T23:04:59;21.20;99.90
43049;DHT22;28673;44.412;11.918;2022-09-12T23:07:25;21.20;99.90
43049;DHT22;28673;44.412;11.918;2022-09-12T23:09:51;21.10;99.90
43049;DHT22;28673;44.412;11.918;2022-09-12T23:12:16;21.10;99.90
43049;DHT22;28673;44.412;11.918;2022-09-12T23:14:42;21.10;99.90
43049;DHT22;28673;44.412;11.918;2022-09-12T23:17:08;21.10;99.90
43049;DHT22;28673;44.412;11.918;2022-09-12T23:19:34;21.00;99.90
43049;DHT22;28673;44.412;11.918;2022-09-12T23:22:00;21.00;99.90
43049;DHT22;28673;44.412;11.918;2022-09-12T23:24:25;21.00;99.90
43049;DHT22;28673;44.412;11.918;2022-09-12T23:26:51;21.00;99.90
43049;DHT22;28673;44.412;11.918;2022-09-12T23:29:17;21.00;99.90
43049;DHT22;28673;44.412;11.918;2022-09-12T23:31:43;21.00;99.90
43049;DHT22;28673;44.412;11.918;2022-09-12T23:34:08;20.90;99.90
43049;DHT22;28673;44.412;11.918;2022-09-12T23:36:35;20.90;99.90
43049;DHT22;28673;44.412;11.918;2022-09-12T23:39:01;20.90;99.90
43049;DHT22;28673;44.412;11.918;2022-09-12T23:41:27;20.80;99.90
43049;DHT22;28673;44.412;11.918;2022-09-12T23:43:53;20.80;99.90
43049;DHT22;28673;44.412;11.918;2022-09-12T23:46:19;20.80;99.90
43049;DHT22;28673;44.412;11.918;2022-09-12T23:48:45;20.70;99.90
43049;DHT22;28673;44.412;11.918;2022-09-12T23:51:11;20.70;99.90
43049;DHT22;28673;44.412;11.918;2022-09-12T23:53:38;20.70;99.90
43049;DHT22;28673;44.412;11.918;2022-09-12T23:56:05;20.60;99.90
43049;DHT22;28673;44.412;11.918;2022-09-12T23:58:31;20.60;99.90
